Time;durP1;ratioP1;P1;durP2;ratioP2;P2;SDS_P1;SDS_P2;PMS_P1;PMS_P2;Temp;Humidity;BMP_temperature;BMP_pressure;BME280_temperature;BME280_humidity;BME280_pressure;Samples;Min_cycle;Max_cycle;Signal;HPM_P1;HPM_P2
2021/11/30 00:01:58;;;;;;;2.63;0.93;;;15.30;78.60;;;;;;4189257;28;20412;-72
2021/11/30 00:04:20;;;;;;;3.75;1.20;;;15.30;78.40;;;;;;4176567;28;20069;-73
2021/11/30 00:06:43;;;;;;;3.65;1.25;;;15.30;78.30;;;;;;4176683;28;20044;-74
2021/11/30 00:11:55;;;;;;;0.95;0.82;;;15.40;78.40;;;;;;4192616;28;20059;-75
2021/11/30 00:14:17;;;;;;;2.80;1.77;;;15.40;78.50;;;;;;4192463;28;20091;-74
2021/11/30 00:16:39;;;;;;;1.10;0.85;;;15.40;78.20;;;;;;4183475;28;20060;-74
2021/11/30 00:19:02;;;;;;;1.42;0.90;;;15.50;78.00;;;;;;4175388;28;20480;-74
2021/11/30 00:21:24;;;;;;;2.63;1.00;;;15.50;77.70;;;;;;4174627;28;20055;-74
2021/11/30 00:23:46;;;;;;;3.72;0.90;;;15.60;77.70;;;;;;4169369;28;20155;-73
2021/11/30 00:26:09;;;;;;;5.07;1.50;;;15.50;77.20;;;;;;4176661;28;20350;-73
2021/11/30 00:28:31;;;;;;;3.40;0.82;;;15.60;77.20;;;;;;4175188;28;20524;-73
2021/11/30 00:30:54;;;;;;;3.75;1.08;;;15.50;77.10;;;;;;4180576;28;20056;-73
2021/11/30 00:33:16;;;;;;;3.25;1.10;;;15.50;77.10;;;;;;4176450;28;20041;-73
2021/11/30 00:35:39;;;;;;;2.15;0.85;;;15.60;77.40;;;;;;4176211;28;20060;-73
2021/11/30 00:38:02;;;;;;;2.33;0.90;;;15.60;77.10;;;;;;4180396;28;20470;-73
2021/11/30 00:40:24;;;;;;;3.28;1.00;;;15.60;77.10;;;;;;4177678;28;20115;-73
2021/11/30 00:42:47;;;;;;;4.13;0.90;;;15.70;77.00;;;;;;4192566;28;20059;-73
2021/11/30 00:45:10;;;;;;;2.63;1.10;;;15.70;76.80;;;;;;4186783;28;20131;-73
2021/11/30 00:47:33;;;;;;;2.88;1.13;;;15.70;76.70;;;;;;4192805;28;20399;-74
2021/11/30 00:49:55;;;;;;;5.00;1.23;;;15.70;76.60;;;;;;4192874;28;20098;-74
2021/11/30 00:52:19;;;;;;;3.40;0.90;;;15.70;76.50;;;;;;4192345;28;20434;-73
2021/11/30 00:54:42;;;;;;;2.72;0.77;;;15.70;76.70;;;;;;4192845;28;20044;-73
2021/11/30 00:57:05;;;;;;;6.05;1.27;;;15.70;76.70;;;;;;4179603;28;20140;-73
2021/11/30 00:59:28;;;;;;;4.75;0.75;;;15.70;76.70;;;;;;4184564;28;20064;-72
2021/11/30 01:01:50;;;;;;;4.65;1.10;;;15.60;76.60;;;;;;4187268;28;20056;-73
2021/11/30 01:04:12;;;;;;;3.05;1.48;;;15.60;77.30;;;;;;4192284;28;20503;-73
2021/11/30 01:06:34;;;;;;;3.25;1.35;;;15.50;76.50;;;;;;4192730;28;20044;-73
2021/11/30 01:08:58;;;;;;;4.65;1.45;;;15.60;76.50;;;;;;4192224;28;20048;-73
2021/11/30 01:11:21;;;;;;;9.77;1.30;;;15.60;76.60;;;;;;4177202;28;20048;-73
2021/11/30 01:13:43;;;;;;;2.92;0.82;;;15.60;76.50;;;;;;4185866;28;20052;-73
2021/11/30 01:16:06;;;;;;;1.92;1.20;;;15.60;76.40;;;;;;4180091;28;20053;-72
2021/11/30 01:18:28;;;;;;;12.02;2.75;;;15.60;76.20;;;;;;4167491;28;20048;-72
2021/11/30 01:20:52;;;;;;;2.50;1.00;;;15.60;76.50;;;;;;4160524;28;20057;-73
2021/11/30 01:23:14;;;;;;;5.50;1.23;;;15.60;76.50;;;;;;4181260;28;20048;-72
2021/11/30 01:25:38;;;;;;;5.53;1.35;;;15.60;76.50;;;;;;4192106;28;20487;-73
2021/11/30 01:28:01;;;;;;;2.47;1.27;;;15.70;76.10;;;;;;4176366;28;20567;-72
2021/11/30 01:30:24;;;;;;;4.85;1.40;;;15.80;76.00;;;;;;4175374;28;20048;-72
2021/11/30 01:32:47;;;;;;;1.73;1.13;;;15.80;75.50;;;;;;4169293;28;20044;-72
2021/11/30 01:35:10;;;;;;;6.95;1.55;;;15.90;75.00;;;;;;4175716;28;20103;-71
2021/11/30 01:37:33;;;;;;;3.00;1.23;;;15.90;74.60;;;;;;4182679;28;20408;-71
2021/11/30 01:39:56;;;;;;;3.45;1.10;;;15.90;74.70;;;;;;4176020;28;20132;-71
2021/11/30 01:42:20;;;;;;;4.78;1.42;;;15.90;74.80;;;;;;4175663;28;20041;-71
2021/11/30 01:44:47;;;;;;;4.25;1.45;;;15.90;74.90;;;;;;4167597;28;20455;-71
2021/11/30 01:47:22;;;;;;;4.13;1.23;;;15.90;74.80;;;;;;4175211;28;20049;-70
2021/11/30 01:49:45;;;;;;;4.68;1.40;;;16.00;74.60;;;;;;4174708;28;20136;-72
2021/11/30 01:52:09;;;;;;;4.50;1.30;;;16.00;74.40;;;;;;4174630;28;20079;-71
2021/11/30 01:54:31;;;;;;;2.25;1.10;;;15.90;73.50;;;;;;4175021;28;20055;-70
2021/11/30 01:56:54;;;;;;;1.73;0.90;;;16.00;74.40;;;;;;4175262;28;20408;-70
2021/11/30 01:59:18;;;;;;;3.13;1.02;;;16.00;74.20;;;;;;4159613;28;20045;-70
2021/11/30 02:01:40;;;;;;;3.95;1.10;;;16.00;73.50;;;;;;4175282;28;20048;-71
2021/11/30 02:04:03;;;;;;;2.80;1.25;;;16.00;73.50;;;;;;4174116;28;20043;-70
2021/11/30 02:06:25;;;;;;;1.83;0.95;;;16.00;73.60;;;;;;4165999;28;20432;-71
2021/11/30 02:08:47;;;;;;;2.85;0.77;;;16.00;73.80;;;;;;4174753;28;20069;-70
2021/11/30 02:11:09;;;;;;;2.42;1.00;;;16.00;74.40;;;;;;4174678;28;20126;-71
2021/11/30 02:13:33;;;;;;;2.60;1.20;;;16.00;74.30;;;;;;4174603;28;20048;-71
2021/11/30 02:15:59;;;;;;;2.47;1.13;;;16.10;73.90;;;;;;4174768;28;20561;-72
2021/11/30 02:18:23;;;;;;;4.50;1.25;;;16.10;73.40;;;;;;4174941;28;20493;-72
2021/11/30 02:20:47;;;;;;;4.32;1.38;;;16.20;73.50;;;;;;4174550;28;20139;-72
2021/11/30 02:23:17;;;;;;;3.00;1.33;;;16.20;73.20;;;;;;4174166;28;20052;-72
2021/11/30 02:25:39;;;;;;;3.90;1.17;;;16.20;73.30;;;;;;4159733;28;20041;-71
2021/11/30 02:28:01;;;;;;;2.28;1.38;;;16.20;73.20;;;;;;4174768;28;20072;-72
2021/11/30 02:30:23;;;;;;;4.60;1.40;;;16.20;73.20;;;;;;4174968;28;20158;-71
2021/11/30 02:32:45;;;;;;;1.88;1.00;;;16.20;72.90;;;;;;4167959;28;20122;-71
2021/11/30 02:35:08;;;;;;;2.78;1.35;;;16.20;72.90;;;;;;4159221;28;20052;-72
2021/11/30 02:37:38;;;;;;;1.50;1.40;;;16.20;73.90;;;;;;4159354;28;20045;-72
2021/11/30 02:40:00;;;;;;;1.63;1.10;;;16.20;73.00;;;;;;4174893;28;20072;-72
2021/11/30 02:42:22;;;;;;;2.40;1.17;;;16.10;73.10;;;;;;4174603;28;20102;-72
2021/11/30 02:44:44;;;;;;;1.20;1.10;;;16.10;73.00;;;;;;4161482;28;20579;-72
2021/11/30 02:47:08;;;;;;;3.28;1.70;;;16.00;73.30;;;;;;4178109;28;20076;-72
2021/11/30 02:49:32;;;;;;;2.55;1.05;;;16.00;73.40;;;;;;4178111;28;20044;-72
2021/11/30 02:52:03;;;;;;;2.70;1.35;;;15.90;73.70;;;;;;4165731;28;20532;-72
2021/11/30 02:54:27;;;;;;;1.42;1.13;;;15.90;73.80;;;;;;4186279;28;20057;-72
2021/11/30 02:56:53;;;;;;;2.05;1.38;;;15.80;74.30;;;;;;4178020;28;20057;-72
2021/11/30 02:59:16;;;;;;;1.10;1.00;;;15.80;74.50;;;;;;4178901;28;20504;-71
2021/11/30 03:01:40;;;;;;;1.23;1.10;;;15.80;74.90;;;;;;4178038;28;20045;-72
2021/11/30 03:04:09;;;;;;;1.73;1.15;;;15.90;74.80;;;;;;4177457;28;20056;-71
2021/11/30 03:06:34;;;;;;;1.02;0.90;;;15.90;74.20;;;;;;4178030;28;21021;-71
2021/11/30 03:08:56;;;;;;;1.23;1.10;;;16.00;74.00;;;;;;4189386;28;20067;-70
2021/11/30 03:11:19;;;;;;;1.40;1.00;;;16.00;73.90;;;;;;4180477;28;20095;-72
2021/11/30 03:13:41;;;;;;;2.15;1.00;;;16.10;73.70;;;;;;4193749;28;20075;-71
2021/11/30 03:16:04;;;;;;;1.25;1.15;;;16.10;73.40;;;;;;4194242;28;20506;-71
2021/11/30 03:18:27;;;;;;;1.45;1.08;;;16.10;73.30;;;;;;4179076;28;20432;-71
2021/11/30 03:20:49;;;;;;;1.20;1.10;;;16.10;73.60;;;;;;4185141;28;20533;-72
2021/11/30 03:23:11;;;;;;;2.20;1.00;;;16.10;73.60;;;;;;4193699;28;20593;-71
2021/11/30 03:25:33;;;;;;;1.20;1.10;;;16.10;73.60;;;;;;4193876;28;20063;-72
2021/11/30 03:27:56;;;;;;;1.00;0.85;;;16.10;73.10;;;;;;4185945;28;20041;-72
2021/11/30 03:30:22;;;;;;;1.45;1.02;;;16.20;73.00;;;;;;4177553;28;20049;-72
2021/11/30 03:35:24;;;;;;;1.08;0.90;;;16.30;72.60;;;;;;4184579;28;20040;-73
2021/11/30 03:37:46;;;;;;;0.73;0.73;;;16.40;72.20;;;;;;4178333;28;20041;-72
2021/11/30 03:40:11;;;;;;;1.00;0.90;;;16.40;71.60;;;;;;4182532;28;20040;-73
2021/11/30 03:42:33;;;;;;;0.80;0.80;;;16.50;71.40;;;;;;4177314;28;20056;-72
2021/11/30 03:44:56;;;;;;;1.70;0.80;;;16.50;72.10;;;;;;4177540;28;20049;-73
2021/11/30 03:47:18;;;;;;;1.15;0.80;;;16.50;70.90;;;;;;4179351;28;20049;-72
2021/11/30 03:49:41;;;;;;;0.75;0.75;;;16.50;70.80;;;;;;4186913;28;20053;-74
2021/11/30 03:52:03;;;;;;;0.90;0.90;;;16.50;70.60;;;;;;4178081;28;20147;-73
2021/11/30 03:54:25;;;;;;;0.90;0.90;;;16.60;70.70;;;;;;4176797;28;20044;-73
2021/11/30 03:56:49;;;;;;;0.70;0.70;;;16.60;70.40;;;;;;4171430;28;20107;-73
2021/11/30 03:59:11;;;;;;;0.80;0.80;;;16.70;70.00;;;;;;4176919;28;20125;-73
2021/11/30 04:01:35;;;;;;;0.60;0.60;;;16.80;69.50;;;;;;4180670;28;20047;-73
2021/11/30 04:03:58;;;;;;;0.80;0.80;;;16.80;69.10;;;;;;4188412;28;20110;-72
2021/11/30 04:06:20;;;;;;;0.82;0.77;;;16.80;68.90;;;;;;4176754;28;20124;-72
2021/11/30 04:08:42;;;;;;;0.80;0.80;;;16.80;68.80;;;;;;4169433;28;20049;-72
2021/11/30 04:11:04;;;;;;;1.20;0.63;;;16.80;68.90;;;;;;4176363;28;20049;-72
2021/11/30 04:13:26;;;;;;;0.70;0.70;;;16.70;70.00;;;;;;4175741;28;20108;-72
2021/11/30 04:15:48;;;;;;;0.90;0.90;;;16.70;69.30;;;;;;4176520;28;20103;-73
2021/11/30 04:18:11;;;;;;;0.68;0.60;;;16.70;69.50;;;;;;4176423;28;20049;-72
2021/11/30 04:20:33;;;;;;;0.80;0.80;;;16.70;69.50;;;;;;4192710;28;20510;-72
2021/11/30 04:22:55;;;;;;;0.80;0.80;;;16.70;69.50;;;;;;4192790;28;20044;-72
2021/11/30 04:25:18;;;;;;;1.08;0.70;;;16.70;69.50;;;;;;4192851;28;20052;-72
2021/11/30 04:27:41;;;;;;;1.02;0.95;;;16.60;69.30;;;;;;4192899;28;20121;-72
2021/11/30 04:30:05;;;;;;;0.73;0.73;;;16.70;69.50;;;;;;4190949;28;20412;-72
2021/11/30 04:32:28;;;;;;;1.35;0.80;;;16.60;69.50;;;;;;4181562;28;20083;-72
2021/11/30 04:34:51;;;;;;;0.82;0.77;;;16.60;69.80;;;;;;4187462;28;20127;-73
2021/11/30 04:37:13;;;;;;;0.90;0.90;;;16.50;70.00;;;;;;4192688;28;20564;-73
2021/11/30 04:39:35;;;;;;;0.95;0.95;;;16.50;70.40;;;;;;4193047;28;20128;-73
2021/11/30 04:41:58;;;;;;;1.00;1.00;;;16.60;70.30;;;;;;4192329;28;20054;-73
2021/11/30 04:44:21;;;;;;;1.10;1.00;;;16.70;70.00;;;;;;4192609;28;20051;-73
2021/11/30 04:46:50;;;;;;;0.85;0.80;;;16.70;69.60;;;;;;4189007;28;20098;-73
2021/11/30 04:49:16;;;;;;;1.00;1.00;;;16.80;69.40;;;;;;4192176;28;20106;-72
2021/11/30 04:51:40;;;;;;;1.65;1.23;;;16.70;70.20;;;;;;4192559;28;20068;-72
2021/11/30 04:54:02;;;;;;;2.58;1.38;;;16.70;69.50;;;;;;4192255;28;20052;-72
2021/11/30 04:56:24;;;;;;;2.50;1.30;;;16.60;69.80;;;;;;4192461;28;20131;-72
2021/11/30 04:58:47;;;;;;;1.45;1.40;;;16.60;70.10;;;;;;4192164;28;20057;-73
2021/11/30 05:01:09;;;;;;;2.55;1.38;;;16.60;70.40;;;;;;4179379;28;20349;-74
2021/11/30 05:03:31;;;;;;;2.15;1.10;;;16.50;70.50;;;;;;4177722;28;20060;-73
2021/11/30 05:05:53;;;;;;;2.63;1.73;;;16.50;70.60;;;;;;4192264;28;20052;-72
2021/11/30 05:08:17;;;;;;;1.92;1.20;;;16.40;70.70;;;;;;4192509;28;20044;-72
2021/11/30 05:10:39;;;;;;;2.60;1.10;;;16.40;71.00;;;;;;4192380;28;20446;-73
2021/11/30 05:13:02;;;;;;;2.97;0.95;;;16.40;71.30;;;;;;4192474;28;20056;-73
2021/11/30 05:15:24;;;;;;;2.22;1.10;;;16.30;71.70;;;;;;4161651;28;20500;-73
2021/11/30 05:17:46;;;;;;;2.60;1.27;;;16.20;71.90;;;;;;4189671;28;20132;-73
2021/11/30 05:20:10;;;;;;;5.50;1.48;;;16.20;72.10;;;;;;4192229;28;20040;-73
2021/11/30 05:22:32;;;;;;;2.30;0.95;;;16.10;72.40;;;;;;4183148;28;20155;-73
2021/11/30 05:25:14;;;;;;;4.80;1.15;;;16.10;72.80;;;;;;4175457;28;20139;-73
2021/11/30 05:27:40;;;;;;;2.90;1.00;;;16.00;73.10;;;;;;4180633;28;20047;-73
2021/11/30 05:30:02;;;;;;;2.80;1.30;;;15.90;73.50;;;;;;4192590;28;20436;-72
2021/11/30 05:32:24;;;;;;;8.23;1.60;;;15.90;73.90;;;;;;4176004;28;20048;-72
2021/11/30 05:34:46;;;;;;;9.60;2.45;;;16.00;73.90;;;;;;4175887;28;20041;-73
2021/11/30 05:37:08;;;;;;;8.88;1.55;;;16.00;73.70;;;;;;4176073;28;20059;-73
2021/11/30 05:39:30;;;;;;;6.82;1.67;;;16.10;73.50;;;;;;4175695;28;20051;-74
2021/11/30 05:41:54;;;;;;;4.93;1.52;;;16.10;73.90;;;;;;4183324;28;20056;-74
2021/11/30 05:44:16;;;;;;;6.15;2.05;;;16.10;73.40;;;;;;4175531;28;20122;-74
2021/11/30 05:46:38;;;;;;;7.55;2.13;;;16.10;73.60;;;;;;4175744;28;20037;-73
2021/11/30 05:49:00;;;;;;;11.73;2.13;;;16.10;73.60;;;;;;4175503;28;20048;-71
2021/11/30 05:51:22;;;;;;;9.85;2.10;;;16.00;73.80;;;;;;4175717;28;20119;-71
2021/11/30 05:53:44;;;;;;;6.88;1.75;;;16.00;74.00;;;;;;4177929;28;20071;-71
2021/11/30 05:56:08;;;;;;;9.18;1.73;;;16.00;74.10;;;;;;4180126;28;20049;-71
2021/11/30 05:58:35;;;;;;;8.75;2.22;;;16.00;74.10;;;;;;4179592;28;20063;-70
2021/11/30 06:01:06;;;;;;;7.63;1.85;;;16.00;74.10;;;;;;4191641;28;20049;-70
2021/11/30 06:03:32;;;;;;;7.15;1.55;;;16.00;74.40;;;;;;4174589;28;20044;-70
2021/11/30 06:05:53;;;;;;;9.27;1.88;;;16.00;74.40;;;;;;4175064;28;20041;-70
2021/11/30 06:08:16;;;;;;;9.40;1.98;;;16.10;74.40;;;;;;4181627;28;20067;-70
2021/11/30 06:10:38;;;;;;;18.38;2.65;;;16.10;74.10;;;;;;4174780;28;20041;-72
2021/11/30 06:13:00;;;;;;;8.50;1.90;;;16.10;74.00;;;;;;4175333;28;20122;-71
2021/11/30 06:15:23;;;;;;;11.27;2.47;;;16.10;73.90;;;;;;4174587;28;20052;-71
2021/11/30 06:17:45;;;;;;;8.93;1.63;;;16.20;74.00;;;;;;4175015;28;20056;-73
2021/11/30 06:20:10;;;;;;;7.60;1.30;;;16.10;74.00;;;;;;4175038;28;20053;-70
2021/11/30 06:22:32;;;;;;;16.60;2.45;;;16.20;74.00;;;;;;4184896;28;20044;-71
2021/11/30 06:24:54;;;;;;;8.80;1.63;;;16.20;73.90;;;;;;4191400;28;20392;-71
2021/11/30 06:27:16;;;;;;;6.90;1.88;;;16.20;73.80;;;;;;4176363;28;20099;-72
2021/11/30 06:29:39;;;;;;;10.77;1.98;;;16.20;73.80;;;;;;4190249;28;20041;-71
2021/11/30 06:32:02;;;;;;;13.70;1.70;;;16.20;74.00;;;;;;4177389;28;20068;-71
2021/11/30 06:34:24;;;;;;;6.55;1.55;;;16.20;74.00;;;;;;4191720;28;20054;-70
2021/11/30 06:36:47;;;;;;;4.85;1.58;;;16.20;73.80;;;;;;4179235;28;20134;-71
2021/11/30 06:39:09;;;;;;;6.05;1.75;;;16.20;73.80;;;;;;4189058;28;20044;-71
2021/11/30 06:41:31;;;;;;;7.88;1.65;;;16.20;73.70;;;;;;4188297;28;20053;-68
2021/11/30 06:43:53;;;;;;;10.82;2.03;;;16.20;74.10;;;;;;4179709;28;20056;-69
2021/11/30 06:46:19;;;;;;;9.23;1.70;;;16.20;74.40;;;;;;4191778;28;20055;-68
2021/11/30 06:48:42;;;;;;;4.43;1.10;;;16.20;74.50;;;;;;4191433;28;20040;-68
2021/11/30 06:51:04;;;;;;;5.97;1.30;;;16.20;74.50;;;;;;4182985;28;20495;-69
2021/11/30 06:53:32;;;;;;;5.80;1.27;;;16.10;74.50;;;;;;4181997;28;20090;-69
2021/11/30 06:55:54;;;;;;;3.65;1.10;;;16.10;74.70;;;;;;4175023;28;20144;-66
2021/11/30 06:58:16;;;;;;;3.95;0.90;;;16.10;75.00;;;;;;4174775;28;20096;-68
2021/11/30 07:00:39;;;;;;;5.53;1.27;;;16.10;75.30;;;;;;4174360;28;20056;-66
2021/11/30 07:03:01;;;;;;;5.78;1.08;;;16.10;75.20;;;;;;4174540;28;20041;-69
2021/11/30 07:05:28;;;;;;;5.13;1.10;;;16.10;75.00;;;;;;4174965;28;20526;-67
2021/11/30 07:07:57;;;;;;;4.68;1.30;;;16.10;74.90;;;;;;4190670;28;20047;-69
2021/11/30 07:10:40;;;;;;;2.95;1.08;;;16.10;75.00;;;;;;4190900;28;20048;-69
2021/11/30 07:13:15;;;;;;;3.33;1.00;;;16.10;75.00;;;;;;4190862;28;20518;-69
2021/11/30 07:15:38;;;;;;;2.80;0.90;;;16.10;75.00;;;;;;4173632;28;20053;-69
2021/11/30 07:18:01;;;;;;;4.55;0.98;;;16.20;75.00;;;;;;4174260;28;20048;-68
2021/11/30 07:20:25;;;;;;;5.47;1.50;;;16.20;75.00;;;;;;4174437;28;20112;-70
2021/11/30 07:22:47;;;;;;;4.30;1.00;;;16.20;74.70;;;;;;4159361;28;20104;-70
2021/11/30 07:25:09;;;;;;;6.00;1.13;;;16.30;74.40;;;;;;4173919;28;20160;-75
2021/11/30 07:27:31;;;;;;;5.00;0.75;;;16.40;74.00;;;;;;4174539;28;20584;-75
2021/11/30 07:29:56;;;;;;;4.78;1.08;;;16.40;73.70;;;;;;4175464;28;20120;-79
2021/11/30 07:32:18;;;;;;;8.07;1.13;;;16.50;73.50;;;;;;4177225;28;20060;-78
2021/11/30 07:34:40;;;;;;;6.28;1.40;;;16.50;73.50;;;;;;4177099;28;20398;-79
2021/11/30 07:37:04;;;;;;;5.40;1.00;;;16.40;73.50;;;;;;4162235;28;20049;-73
2021/11/30 07:39:26;;;;;;;4.80;1.08;;;16.40;73.70;;;;;;4177119;28;20052;-79
2021/11/30 07:41:49;;;;;;;7.90;1.15;;;16.40;73.80;;;;;;4179262;28;20573;-75
2021/11/30 07:44:11;;;;;;;7.28;1.45;;;16.30;74.70;;;;;;4187976;28;20044;-75
2021/11/30 07:46:33;;;;;;;8.43;1.33;;;16.30;74.00;;;;;;4171396;28;20040;-73
2021/11/30 07:48:56;;;;;;;3.38;1.33;;;16.20;74.40;;;;;;4182545;28;20056;-74
2021/11/30 07:51:18;;;;;;;5.00;1.15;;;16.20;74.60;;;;;;4202761;28;20457;-73
2021/11/30 07:53:42;;;;;;;7.20;1.27;;;16.30;74.60;;;;;;4176193;28;20044;-73
2021/11/30 07:56:05;;;;;;;8.02;1.40;;;16.30;74.30;;;;;;4176699;28;20052;-74
2021/11/30 07:58:28;;;;;;;8.68;1.48;;;16.30;74.20;;;;;;4176805;28;20408;-74
2021/11/30 08:00:52;;;;;;;5.88;1.20;;;16.30;74.10;;;;;;4176118;28;20056;-71
2021/11/30 08:03:14;;;;;;;6.47;1.20;;;16.30;74.40;;;;;;4185780;28;20078;-74
2021/11/30 08:05:37;;;;;;;4.85;1.45;;;16.30;74.40;;;;;;4193292;28;20503;-73
2021/11/30 08:08:00;;;;;;;5.68;1.52;;;16.30;74.30;;;;;;4179025;28;20048;-74
2021/11/30 08:10:26;;;;;;;8.48;1.55;;;16.40;74.10;;;;;;4192990;28;20076;-74
2021/11/30 08:12:48;;;;;;;7.13;1.67;;;16.40;73.90;;;;;;4193418;28;20059;-74
2021/11/30 08:15:13;;;;;;;6.03;1.50;;;16.40;73.70;;;;;;4192932;28;20156;-72
2021/11/30 08:17:53;;;;;;;4.75;1.10;;;16.30;73.80;;;;;;4193259;28;20079;-73
2021/11/30 08:20:17;;;;;;;10.55;2.65;;;16.30;74.10;;;;;;4177601;28;20037;-74
2021/11/30 08:22:41;;;;;;;9.10;1.95;;;16.20;74.30;;;;;;4166808;28;20146;-74
2021/11/30 08:25:05;;;;;;;6.45;1.17;;;16.20;74.60;;;;;;4177232;28;20037;-72
2021/11/30 08:27:28;;;;;;;8.07;1.50;;;16.20;74.60;;;;;;4187332;28;20064;-74
2021/11/30 08:29:51;;;;;;;4.72;1.00;;;16.20;74.60;;;;;;4174876;28;20140;-74
2021/11/30 08:32:13;;;;;;;7.68;1.40;;;16.20;74.80;;;;;;4174626;28;20098;-73
2021/11/30 08:34:35;;;;;;;6.10;1.05;;;16.20;75.00;;;;;;4161843;28;20080;-73
2021/11/30 08:36:57;;;;;;;7.75;1.40;;;16.20;74.90;;;;;;4177994;28;20045;-75
2021/11/30 08:39:19;;;;;;;9.93;1.90;;;16.20;74.70;;;;;;4176936;28;20072;-75
2021/11/30 08:41:41;;;;;;;7.30;1.40;;;16.20;74.70;;;;;;4182941;28;20460;-75
2021/11/30 08:44:15;;;;;;;7.22;1.77;;;16.20;74.70;;;;;;4174383;28;20513;-75
2021/11/30 08:46:39;;;;;;;6.57;1.58;;;16.20;74.70;;;;;;4174767;28;20056;-74
2021/11/30 08:49:02;;;;;;;9.70;1.75;;;16.20;75.80;;;;;;4174096;28;20052;-75
2021/11/30 08:51:25;;;;;;;9.82;1.90;;;16.10;75.00;;;;;;4177294;28;20048;-75
2021/11/30 08:53:47;;;;;;;8.73;1.95;;;16.10;75.10;;;;;;4162377;28;20052;-72
2021/11/30 08:56:11;;;;;;;10.80;2.40;;;16.00;75.30;;;;;;4177298;28;20049;-73
2021/11/30 08:58:34;;;;;;;7.57;2.10;;;15.90;76.40;;;;;;4180190;28;20057;-72
2021/11/30 09:00:57;;;;;;;7.35;1.42;;;15.90;75.90;;;;;;4177648;28;20067;-74
2021/11/30 09:03:20;;;;;;;11.13;2.33;;;15.80;76.00;;;;;;4179090;28;20052;-74
2021/11/30 09:05:42;;;;;;;12.38;3.13;;;15.80;76.40;;;;;;4172835;28;20056;-75
2021/11/30 09:08:05;;;;;;;7.97;2.00;;;15.70;76.40;;;;;;4177457;28;20045;-72
2021/11/30 09:10:28;;;;;;;11.93;2.47;;;15.70;76.70;;;;;;4174470;28;20075;-69
2021/11/30 09:12:50;;;;;;;12.50;2.13;;;15.60;76.90;;;;;;4171951;28;20060;-71
2021/11/30 09:15:12;;;;;;;15.50;2.92;;;15.60;77.20;;;;;;4175608;28;20121;-70
2021/11/30 09:17:44;;;;;;;10.82;2.20;;;15.60;77.40;;;;;;4179828;28;20048;-71
2021/11/30 09:20:08;;;;;;;10.00;2.15;;;15.50;77.50;;;;;;4176438;28;20040;-71
2021/11/30 09:22:31;;;;;;;14.05;2.90;;;15.50;77.90;;;;;;4175008;28;20124;-71
2021/11/30 09:24:57;;;;;;;12.00;2.53;;;15.40;78.20;;;;;;4187640;28;20461;-70
2021/11/30 09:27:20;;;;;;;11.20;2.17;;;15.50;78.40;;;;;;4165606;28;20388;-70
2021/11/30 09:29:43;;;;;;;11.32;2.05;;;15.50;78.40;;;;;;4174120;28;20074;-71
2021/11/30 09:32:08;;;;;;;15.82;2.35;;;15.50;78.30;;;;;;4173661;28;20106;-71
2021/11/30 09:34:51;;;;;;;6.80;2.30;;;15.70;78.50;;;;;;4176341;28;20516;-70
2021/11/30 09:37:13;;;;;;;11.82;2.72;;;15.90;77.80;;;;;;4173622;28;20048;-70
2021/11/30 09:39:36;;;;;;;10.77;2.53;;;16.20;76.60;;;;;;4171751;28;20053;-70
2021/11/30 09:41:58;;;;;;;11.52;2.78;;;16.50;75.20;;;;;;4180846;28;20052;-70
2021/11/30 09:44:20;;;;;;;13.05;2.70;;;16.90;73.70;;;;;;4176037;28;20067;-70
2021/11/30 09:46:43;;;;;;;10.85;2.03;;;17.20;72.40;;;;;;4177018;28;20071;-70
2021/11/30 09:49:05;;;;;;;12.93;2.25;;;17.50;71.20;;;;;;4181958;28;20048;-69
2021/11/30 09:51:29;;;;;;;9.35;2.47;;;17.70;70.20;;;;;;4173342;28;20052;-70
2021/11/30 09:53:50;;;;;;;10.75;1.83;;;17.80;69.60;;;;;;4183350;28;20048;-70
2021/11/30 09:56:13;;;;;;;11.30;2.42;;;17.80;69.10;;;;;;4184543;28;20083;-69
2021/11/30 09:58:34;;;;;;;10.43;2.47;;;17.80;68.90;;;;;;4176884;28;20045;-70
2021/11/30 10:00:58;;;;;;;12.18;2.13;;;17.80;69.10;;;;;;4186961;28;20049;-70
2021/11/30 10:03:21;;;;;;;10.23;2.10;;;17.80;70.30;;;;;;4176244;28;20045;-70
2021/11/30 10:05:44;;;;;;;17.20;2.70;;;17.80;69.60;;;;;;4177608;28;20772;-70
2021/11/30 10:08:23;;;;;;;14.27;2.70;;;17.80;69.60;;;;;;4176739;28;20495;-70
2021/11/30 10:11:01;;;;;;;15.63;2.63;;;17.80;69.20;;;;;;4179115;28;20090;-70
2021/11/30 10:13:24;;;;;;;15.00;3.05;;;17.80;70.20;;;;;;4176760;28;20051;-70
2021/11/30 10:15:52;;;;;;;15.85;2.78;;;17.80;69.30;;;;;;4174387;28;20186;-69
2021/11/30 10:18:16;;;;;;;16.98;2.88;;;17.60;69.60;;;;;;4179906;28;20044;-70
2021/11/30 10:20:38;;;;;;;15.60;2.70;;;17.60;70.00;;;;;;4182427;28;20107;-69
2021/11/30 10:23:00;;;;;;;19.00;2.72;;;17.50;70.20;;;;;;4184891;28;20135;-70
2021/11/30 10:25:26;;;;;;;15.18;2.85;;;17.50;70.20;;;;;;4183349;28;20400;-70
2021/11/30 10:27:51;;;;;;;23.33;3.55;;;17.40;70.70;;;;;;4166960;28;20049;-71
2021/11/30 10:30:16;;;;;;;13.60;2.45;;;17.40;71.20;;;;;;4172999;28;20076;-70
2021/11/30 10:32:43;;;;;;;9.32;2.55;;;17.40;71.30;;;;;;4158990;28;20398;-70
2021/11/30 10:35:06;;;;;;;14.45;4.00;;;17.40;71.30;;;;;;4172882;28;20081;-70
2021/11/30 10:37:28;;;;;;;13.48;3.00;;;17.50;71.20;;;;;;4173144;28;20045;-70
2021/11/30 10:39:50;;;;;;;21.23;3.67;;;17.50;70.60;;;;;;4178769;28;20053;-70
2021/11/30 10:42:18;;;;;;;20.70;3.40;;;17.60;70.30;;;;;;4187332;28;20052;-71
2021/11/30 10:44:40;;;;;;;17.02;2.63;;;17.60;69.70;;;;;;4173453;28;20475;-70
2021/11/30 10:47:11;;;;;;;16.17;3.47;;;17.60;69.60;;;;;;4186436;28;20049;-71
2021/11/30 10:49:33;;;;;;;17.52;3.25;;;17.60;68.80;;;;;;4181594;28;20094;-72
2021/11/30 10:51:56;;;;;;;19.92;3.13;;;17.60;68.20;;;;;;4173375;28;20068;-71
2021/11/30 10:54:18;;;;;;;17.67;3.83;;;17.60;68.80;;;;;;4178848;28;20060;-70
2021/11/30 10:56:41;;;;;;;14.13;2.55;;;17.60;68.50;;;;;;4181702;28;20044;-70
2021/11/30 10:59:05;;;;;;;16.63;2.50;;;17.50;68.70;;;;;;4184949;28;20051;-70
2021/11/30 11:01:28;;;;;;;10.50;2.63;;;17.50;68.30;;;;;;4178472;28;20496;-70
2021/11/30 11:04:05;;;;;;;6.55;1.77;;;17.50;70.10;;;;;;4176499;28;20476;-70
2021/11/30 11:06:30;;;;;;;10.20;2.10;;;17.50;67.60;;;;;;4175374;28;20049;-70
2021/11/30 11:08:55;;;;;;;12.30;2.33;;;17.50;68.80;;;;;;4187075;28;20128;-71
2021/11/30 11:11:19;;;;;;;10.65;2.00;;;17.50;68.40;;;;;;4175678;28;20053;-70
2021/11/30 11:13:42;;;;;;;7.03;2.25;;;17.50;69.30;;;;;;4184544;28;20084;-70
2021/11/30 11:16:08;;;;;;;10.65;2.30;;;17.50;69.90;;;;;;4190975;28;20044;-70
2021/11/30 11:18:32;;;;;;;8.57;2.25;;;17.50;69.00;;;;;;4175790;28;20057;-70
2021/11/30 11:21:13;;;;;;;14.10;2.92;;;17.60;69.50;;;;;;4186077;28;20056;-68
2021/11/30 11:23:36;;;;;;;12.05;2.17;;;17.60;69.20;;;;;;4169021;28;20053;-70
2021/11/30 11:25:59;;;;;;;11.80;2.10;;;17.60;69.10;;;;;;4171885;28;20060;-70
2021/11/30 11:28:22;;;;;;;12.45;2.40;;;17.50;68.70;;;;;;4190730;28;20048;-70
2021/11/30 11:30:45;;;;;;;10.30;2.35;;;17.50;69.50;;;;;;4191635;28;20090;-70
2021/11/30 11:33:10;;;;;;;8.07;2.03;;;17.50;70.00;;;;;;4191101;28;20068;-70
2021/11/30 11:35:33;;;;;;;8.27;1.83;;;17.40;70.00;;;;;;4191397;28;20057;-70
2021/11/30 11:37:59;;;;;;;8.60;1.80;;;17.50;70.30;;;;;;4175439;28;20505;-70
2021/11/30 11:40:21;;;;;;;9.52;1.95;;;17.50;69.60;;;;;;4175547;28;20049;-70
2021/11/30 11:42:44;;;;;;;12.27;2.20;;;17.60;69.80;;;;;;4177261;28;20106;-70
2021/11/30 11:45:07;;;;;;;12.40;1.95;;;17.60;69.50;;;;;;4179002;28;20419;-69
2021/11/30 11:47:33;;;;;;;7.55;1.95;;;17.60;68.60;;;;;;4191107;28;20494;-70
2021/11/30 11:49:56;;;;;;;11.25;2.17;;;17.50;68.90;;;;;;4175585;28;20049;-69
2021/11/30 11:52:21;;;;;;;7.45;1.80;;;17.50;69.50;;;;;;4175870;28;20064;-70
2021/11/30 11:54:58;;;;;;;12.75;2.30;;;17.40;69.90;;;;;;4175852;28;20044;-70
2021/11/30 11:57:23;;;;;;;6.70;1.77;;;17.30;69.70;;;;;;4175642;28;20455;-70
2021/11/30 11:59:47;;;;;;;8.75;1.95;;;17.30;69.80;;;;;;4184096;28;20044;-70
2021/11/30 12:02:17;;;;;;;10.63;2.28;;;17.20;70.20;;;;;;4175277;28;20049;-70
2021/11/30 12:04:41;;;;;;;8.57;2.10;;;17.10;70.60;;;;;;4190043;28;20045;-70
2021/11/30 12:07:05;;;;;;;8.48;1.98;;;17.00;71.40;;;;;;4186533;28;20049;-70
2021/11/30 12:09:30;;;;;;;8.65;1.65;;;17.00;71.80;;;;;;4174737;28;20397;-70
2021/11/30 12:11:54;;;;;;;9.52;1.77;;;17.00;71.90;;;;;;4179424;28;20081;-70
2021/11/30 12:14:36;;;;;;;8.40;2.10;;;17.10;71.80;;;;;;4185728;28;20402;-70
2021/11/30 12:17:10;;;;;;;9.65;1.95;;;17.10;72.60;;;;;;4177269;28;20049;-70
2021/11/30 12:19:39;;;;;;;13.50;2.92;;;17.10;71.60;;;;;;4185366;28;20061;-70
2021/11/30 12:22:01;;;;;;;10.40;1.85;;;17.10;72.20;;;;;;4177486;28;20099;-69
2021/11/30 12:24:35;;;;;;;5.57;2.03;;;17.10;72.40;;;;;;4176802;28;20056;-69
2021/11/30 12:26:57;;;;;;;11.98;2.50;;;17.10;72.30;;;;;;4173919;28;20412;-69
2021/11/30 12:29:35;;;;;;;10.80;2.03;;;17.10;73.40;;;;;;4185280;28;20067;-69
2021/11/30 12:31:59;;;;;;;13.63;2.70;;;17.00;72.30;;;;;;4182871;28;20140;-70
2021/11/30 12:34:32;;;;;;;10.38;2.30;;;17.00;72.80;;;;;;4182883;28;20056;-70